Time;durP1;ratioP1;P1;durP2;ratioP2;P2;SDS_P1;SDS_P2;PMS_P1;PMS_P2;Temp;Humidity;BMP_temperature;BMP_pressure;BME280_temperature;BME280_humidity;BME280_pressure;Samples;Min_cycle;Max_cycle;Signal;HPM_P1;HPM_P2
2023/04/17 00:01:37;;;;;;;6.53;2.40;;;;;;;13.01;64.63;97542.50;5052685;28;20204;-60
2023/04/17 00:04:03;;;;;;;4.10;2.03;;;;;;;12.93;62.39;97511.19;5053000;28;20178;-60
2023/04/17 00:06:28;;;;;;;2.08;1.77;;;;;;;12.76;60.75;97470.38;5052659;28;20272;-60
2023/04/17 00:08:54;;;;;;;2.63;1.90;;;;;;;12.54;62.15;97517.44;5052380;28;20774;-60
2023/04/17 00:11:20;;;;;;;2.30;2.13;;;;;;;12.81;62.42;97564.25;5052608;28;20178;-60
2023/04/17 00:13:46;;;;;;;6.53;2.05;;;;;;;12.20;62.50;97464.38;5052452;28;20220;-60
2023/04/17 00:16:12;;;;;;;4.68;2.05;;;;;;;12.41;62.97;97514.28;5052192;28;20312;-60
2023/04/17 00:18:38;;;;;;;2.30;1.90;;;;;;;12.63;62.68;97551.16;5052506;28;20180;-60
2023/04/17 00:21:04;;;;;;;4.35;2.03;;;;;;;12.30;62.78;97501.47;5052416;28;20174;-60
2023/04/17 00:23:29;;;;;;;4.40;1.95;;;;;;;12.17;61.70;97459.44;5052390;28;20182;-60
2023/04/17 00:25:55;;;;;;;1.52;1.42;;;;;;;12.39;61.99;97503.25;5052353;28;20204;-60
2023/04/17 00:28:20;;;;;;;3.80;1.65;;;;;;;12.85;61.43;97555.22;5049840;28;20186;-60
2023/04/17 00:30:45;;;;;;;2.30;1.42;;;;;;;12.97;60.82;97554.13;5049912;28;20300;-60
2023/04/17 00:33:11;;;;;;;4.03;1.50;;;;;;;12.64;61.87;97515.63;5049759;28;20209;-60
2023/04/17 00:35:36;;;;;;;2.75;1.50;;;;;;;12.48;62.63;97503.25;5049866;28;20182;-60
2023/04/17 00:38:02;;;;;;;1.90;1.23;;;;;;;12.62;62.55;97531.38;5049880;28;20182;-60
2023/04/17 00:40:28;;;;;;;4.00;1.73;;;;;;;12.37;62.79;97512.97;5049814;28;20192;-60
2023/04/17 00:42:59;;;;;;;2.13;1.65;;;;;;;12.14;62.00;97470.09;5049702;28;20190;-60
2023/04/17 00:45:24;;;;;;;3.60;1.60;;;;;;;12.44;63.66;97560.72;5049855;28;20261;-61
2023/04/17 00:47:50;;;;;;;2.08;1.85;;;;;;;12.00;65.04;97509.38;5049744;28;20671;-60
2023/04/17 00:50:16;;;;;;;4.70;3.03;;;;;;;11.85;64.31;97474.47;5049762;28;20208;-60
2023/04/17 00:52:43;;;;;;;4.20;2.90;;;;;;;11.95;64.17;97496.00;5049664;28;20201;-60
2023/04/17 00:55:09;;;;;;;5.03;2.80;;;;;;;12.07;64.46;97515.69;5049682;28;20663;-60
2023/04/17 00:57:35;;;;;;;6.20;2.20;;;;;;;12.12;64.61;97547.19;5049804;28;20276;-60
2023/04/17 01:00:00;;;;;;;3.88;2.70;;;;;;;11.45;65.01;97451.19;5051322;28;20189;-60
2023/04/17 01:02:26;;;;;;;2.13;1.92;;;;;;;12.00;65.17;97546.50;5051976;28;20180;-60
2023/04/17 01:04:51;;;;;;;2.22;1.60;;;;;;;11.43;65.69;97457.47;5052015;28;20273;-60
2023/04/17 01:07:17;;;;;;;4.20;1.58;;;;;;;11.51;65.45;97465.41;5051972;28;20273;-60
2023/04/17 01:09:42;;;;;;;2.45;1.80;;;;;;;12.00;65.70;97556.06;5051939;28;20218;-60
2023/04/17 01:12:35;;;;;;;3.38;1.65;;;;;;;12.02;65.12;97559.34;5052097;28;20251;-60
2023/04/17 01:15:01;;;;;;;6.53;1.70;;;;;;;11.70;64.17;97496.53;5051384;28;20193;-60
2023/04/17 01:17:26;;;;;;;8.85;4.13;;;;;;;12.00;64.93;97545.69;5051859;28;20170;-60
2023/04/17 01:19:52;;;;;;;5.57;3.42;;;;;;;11.64;65.25;97503.09;5051846;28;20184;-60
2023/04/17 01:22:21;;;;;;;7.70;4.47;;;;;;;11.64;66.01;97521.22;5054709;28;20671;-60
2023/04/17 01:24:47;;;;;;;10.68;4.78;;;;;;;11.24;66.00;97467.78;5055777;28;20173;-60
2023/04/17 01:27:14;;;;;;;5.05;3.03;;;;;;;11.26;65.84;97465.88;5055673;28;20181;-60
2023/04/17 01:29:40;;;;;;;4.63;3.08;;;;;;;11.80;66.36;97564.75;5055608;28;20264;-60
2023/04/17 01:32:05;;;;;;;4.28;1.90;;;;;;;11.57;65.19;97501.13;5055552;28;20194;-60
2023/04/17 01:34:31;;;;;;;8.48;2.45;;;;;;;11.36;65.77;97461.53;5055579;28;20189;-60
2023/04/17 01:36:56;;;;;;;3.92;1.65;;;;;;;11.21;67.25;97462.88;5055492;28;20178;-60
2023/04/17 01:39:22;;;;;;;2.33;2.00;;;;;;;11.11;68.72;97467.19;5055449;28;20174;-60
2023/04/17 01:41:47;;;;;;;2.58;2.03;;;;;;;11.37;70.07;97499.44;5055413;28;20177;-60
2023/04/17 01:44:13;;;;;;;4.03;1.63;;;;;;;11.41;70.07;97488.69;5055343;28;20173;-60
2023/04/17 01:46:38;;;;;;;3.33;1.42;;;;;;;11.37;70.96;97520.97;5055326;28;20178;-60
2023/04/17 01:49:04;;;;;;;2.30;1.30;;;;;;;11.12;68.67;97467.06;5055269;28;20288;-60
2023/04/17 01:51:30;;;;;;;2.58;1.58;;;;;;;11.50;69.06;97500.81;5055284;28;20166;-60
2023/04/17 01:53:55;;;;;;;6.07;1.70;;;;;;;11.45;67.43;97476.28;5055094;28;20284;-60
2023/04/17 01:56:21;;;;;;;3.38;1.63;;;;;;;11.52;67.85;97487.75;5052565;28;20186;-60
2023/04/17 01:58:47;;;;;;;4.28;2.00;;;;;;;11.74;69.35;97537.59;5052494;28;20209;-60
2023/04/17 02:01:12;;;;;;;3.20;1.58;;;;;;;11.06;68.98;97448.63;5052655;28;20192;-60
2023/04/17 02:03:37;;;;;;;6.68;2.60;;;;;;;11.45;69.45;97520.31;5052644;28;20231;-60
2023/04/17 02:06:03;;;;;;;2.05;1.50;;;;;;;11.26;69.05;97476.25;5052548;28;20196;-60
2023/04/17 02:08:28;;;;;;;5.15;1.80;;;;;;;11.16;69.83;97490.91;5052799;28;20239;-60
2023/04/17 02:10:54;;;;;;;3.72;1.20;;;;;;;10.92;70.15;97452.41;5052480;28;20213;-60
2023/04/17 02:13:20;;;;;;;2.03;1.92;;;;;;;11.53;67.55;97504.91;5052375;28;20240;-60
2023/04/17 02:15:45;;;;;;;3.50;1.77;;;;;;;11.35;69.68;97475.44;5052421;28;20213;-60
2023/04/17 02:18:11;;;;;;;4.30;1.58;;;;;;;11.53;73.30;97531.66;5052615;28;20613;-60
2023/04/17 02:20:37;;;;;;;8.15;2.00;;;;;;;11.70;73.10;97532.81;5052318;28;20174;-60
2023/04/17 02:23:04;;;;;;;3.28;2.00;;;;;;;11.06;75.44;97444.28;5052253;28;20244;-60
2023/04/17 02:25:30;;;;;;;3.92;1.60;;;;;;;11.47;75.22;97489.91;5052199;28;20649;-60
2023/04/17 02:27:56;;;;;;;6.93;2.15;;;;;;;11.42;77.04;97503.28;5053684;28;20201;-60
2023/04/17 02:30:25;;;;;;;9.18;1.88;;;;;;;11.02;78.39;97435.16;5054429;28;20173;-60
2023/04/17 02:32:52;;;;;;;2.65;1.58;;;;;;;11.46;79.26;97514.19;5054263;28;20225;-60
2023/04/17 02:35:22;;;;;;;1.80;1.63;;;;;;;11.21;80.17;97484.38;5054412;28;20173;-60
2023/04/17 02:37:48;;;;;;;4.18;1.98;;;;;;;11.24;81.77;97504.00;5054616;28;20216;-60
2023/04/17 02:40:14;;;;;;;5.32;2.20;;;;;;;11.14;83.60;97523.91;5054283;28;20260;-60
2023/04/17 02:42:39;;;;;;;4.22;1.90;;;;;;;10.81;82.76;97457.66;5054577;28;20192;-60
2023/04/17 02:45:05;;;;;;;4.15;2.72;;;;;;;11.22;73.61;97531.81;5051763;28;20193;-59
2023/04/17 02:47:31;;;;;;;5.90;2.53;;;;;;;10.64;72.15;97455.69;5051784;28;20194;-59
2023/04/17 02:49:58;;;;;;;2.25;2.03;;;;;;;11.04;72.88;97548.91;5051741;28;20239;-59
2023/04/17 02:52:28;;;;;;;3.70;2.20;;;;;;;10.75;73.30;97511.72;5051700;28;20197;-59
2023/04/17 02:54:55;;;;;;;3.33;1.90;;;;;;;10.97;73.25;97537.44;5051657;28;20291;-59
2023/04/17 02:57:20;;;;;;;5.13;2.58;;;;;;;10.94;72.96;97538.50;5051369;28;20695;-60
2023/04/17 02:59:46;;;;;;;4.65;2.20;;;;;;;10.77;72.02;97512.38;5051583;28;20281;-59
2023/04/17 03:02:13;;;;;;;2.88;2.20;;;;;;;10.59;72.20;97481.13;5051821;28;20323;-59
2023/04/17 03:04:39;;;;;;;6.25;2.63;;;;;;;10.71;71.61;97480.09;5051493;28;20186;-59
2023/04/17 03:07:05;;;;;;;3.40;2.03;;;;;;;10.69;73.29;97471.63;5051487;28;20177;-59
2023/04/17 03:09:35;;;;;;;4.78;2.17;;;;;;;10.95;75.04;97497.91;5051245;28;20686;-59
2023/04/17 03:12:00;;;;;;;3.70;2.45;;;;;;;10.57;74.83;97461.50;5051276;28;20669;-60
2023/04/17 03:14:28;;;;;;;2.38;2.00;;;;;;;10.98;72.51;97539.06;5051302;28;20181;-60
2023/04/17 03:16:53;;;;;;;4.70;2.00;;;;;;;10.67;72.89;97517.50;5052956;28;20208;-60
2023/04/17 03:19:18;;;;;;;3.92;2.20;;;;;;;10.39;72.56;97448.31;5053598;28;20652;-60
2023/04/17 03:21:44;;;;;;;3.47;2.20;;;;;;;10.85;72.43;97528.13;5053552;28;20177;-60
2023/04/17 03:24:11;;;;;;;2.95;2.20;;;;;;;10.69;73.47;97525.16;5053488;28;20180;-60
2023/04/17 03:26:37;;;;;;;4.70;2.40;;;;;;;10.49;74.02;97500.94;5053382;28;20239;-60
2023/04/17 03:29:02;;;;;;;6.63;2.45;;;;;;;10.67;74.70;97514.09;5053367;28;20178;-60
2023/04/17 03:31:27;;;;;;;3.42;1.95;;;;;;;10.26;74.64;97436.53;5053586;28;20177;-60
2023/04/17 03:33:53;;;;;;;3.83;2.22;;;;;;;10.21;74.69;97444.69;5050745;28;20695;-60
2023/04/17 03:36:18;;;;;;;4.20;1.92;;;;;;;10.56;74.80;97486.53;5050873;28;20269;-60
2023/04/17 03:38:44;;;;;;;4.53;2.40;;;;;;;10.62;73.75;97498.16;5050830;28;20260;-60
2023/04/17 03:41:10;;;;;;;2.83;2.10;;;;;;;10.50;73.36;97478.50;5050777;28;20177;-60
2023/04/17 03:43:35;;;;;;;4.63;2.63;;;;;;;10.59;74.07;97513.91;5050204;28;20192;-60
2023/04/17 03:46:01;;;;;;;3.28;2.53;;;;;;;10.43;73.62;97485.91;5050673;28;20248;-60
2023/04/17 03:48:26;;;;;;;2.60;2.15;;;;;;;10.39;74.18;97469.00;5050618;28;20186;-60
2023/04/17 03:50:52;;;;;;;5.13;2.55;;;;;;;10.74;74.45;97525.59;5050621;28;20193;-60
2023/04/17 03:53:17;;;;;;;3.55;2.17;;;;;;;10.39;76.18;97473.38;5050396;28;20220;-60
2023/04/17 03:55:42;;;;;;;6.63;2.30;;;;;;;10.45;76.70;97472.88;5050550;28;20570;-61
2023/04/17 03:58:08;;;;;;;4.80;1.98;;;;;;;10.75;75.44;97511.72;5010494;28;20203;-61
2023/04/17 04:00:36;;;;;;;3.35;2.42;;;;;;;10.32;73.92;97442.03;5010786;28;20326;-61
2023/04/17 04:03:01;;;;;;;3.58;2.55;;;;;;;10.73;72.97;97498.88;5010736;28;20190;-58
2023/04/17 04:05:26;;;;;;;4.22;2.53;;;;;;;10.64;73.26;97506.59;5025325;28;20190;-60
2023/04/17 04:07:52;;;;;;;4.30;2.60;;;;;;;10.44;73.15;97471.25;5030275;28;20185;-60
2023/04/17 04:10:17;;;;;;;3.35;2.22;;;;;;;10.93;72.82;97538.63;5030338;28;20240;-60
2023/04/17 04:12:43;;;;;;;6.53;2.47;;;;;;;10.96;72.64;97534.00;5030422;28;20264;-60
2023/04/17 04:15:08;;;;;;;5.80;2.45;;;;;;;10.57;72.51;97456.34;5030240;28;20503;-60
2023/04/17 04:17:34;;;;;;;5.30;2.92;;;;;;;11.05;72.91;97547.97;5030190;28;20182;-60
2023/04/17 04:19:59;;;;;;;4.25;2.80;;;;;;;11.03;73.26;97547.28;5030235;28;20654;-60
2023/04/17 04:22:25;;;;;;;5.00;2.30;;;;;;;10.55;74.63;97473.72;5030104;28;20707;-60
2023/04/17 04:24:52;;;;;;;3.25;2.00;;;;;;;10.68;74.02;97487.31;5030103;28;20182;-60
2023/04/17 04:27:21;;;;;;;3.58;2.03;;;;;;;10.97;76.67;97540.03;5030152;28;20281;-60
2023/04/17 04:29:47;;;;;;;3.90;2.33;;;;;;;10.98;76.64;97544.25;5060960;28;20279;-60
2023/04/17 04:32:14;;;;;;;6.53;2.38;;;;;;;10.95;77.30;97534.13;5069842;28;20251;-60
2023/04/17 04:34:40;;;;;;;4.13;2.22;;;;;;;11.15;79.97;97556.59;5069883;28;20181;-60
2023/04/17 04:37:06;;;;;;;5.90;2.83;;;;;;;11.08;79.82;97530.41;5029225;28;20570;-58
2023/04/17 04:39:32;;;;;;;7.85;3.47;;;;;;;10.90;82.88;97520.75;5029609;28;20186;-58
2023/04/17 04:42:05;;;;;;;8.20;2.65;;;;;;;10.68;84.05;97495.06;5029959;28;20260;-59
2023/04/17 04:44:30;;;;;;;4.25;2.25;;;;;;;11.28;83.34;97557.19;5029560;28;20578;-59
2023/04/17 04:46:56;;;;;;;6.65;3.20;;;;;;;11.43;78.17;97568.84;5029557;28;20186;-60
2023/04/17 04:49:21;;;;;;;6.90;3.22;;;;;;;11.46;78.62;97571.16;5029477;28;20186;-60
2023/04/17 04:51:47;;;;;;;8.30;3.42;;;;;;;11.49;82.81;97563.16;5029783;28;20183;-60
2023/04/17 04:54:12;;;;;;;9.57;3.55;;;;;;;11.56;86.03;97554.69;5029707;28;20222;-60
2023/04/17 04:56:38;;;;;;;5.63;3.17;;;;;;;11.90;87.99;97581.16;5031784;28;20305;-60
2023/04/17 04:59:04;;;;;;;5.97;3.47;;;;;;;11.87;83.85;97565.88;5032452;28;20288;-60
2023/04/17 05:01:29;;;;;;;5.07;2.67;;;;;;;11.86;77.71;97551.28;5033836;28;20178;-60
2023/04/17 05:03:55;;;;;;;6.15;2.83;;;;;;;11.63;72.08;97518.75;5033747;28;20194;-60
2023/04/17 05:06:21;;;;;;;3.40;2.53;;;;;;;11.77;71.03;97565.84;5033634;28;20281;-60
2023/04/17 05:08:46;;;;;;;6.85;3.58;;;;;;;11.88;72.01;97583.06;5049322;28;20623;-60
2023/04/17 05:11:11;;;;;;;7.78;3.03;;;;;;;12.13;73.58;97603.31;5053548;28;20196;-60
2023/04/17 05:13:37;;;;;;;3.92;2.53;;;;;;;11.86;71.56;97559.03;5053412;28;20292;-60
2023/04/17 05:16:02;;;;;;;6.38;2.78;;;;;;;11.91;70.66;97577.63;5055119;28;20178;-60
2023/04/17 05:18:28;;;;;;;5.82;2.83;;;;;;;12.15;71.02;97606.59;5055831;28;20174;-60
2023/04/17 05:20:53;;;;;;;4.38;2.63;;;;;;;12.02;71.62;97561.94;5055797;28;20605;-60
2023/04/17 05:23:21;;;;;;;7.32;2.83;;;;;;;12.04;71.30;97562.63;5055711;28;20226;-60
2023/04/17 05:25:47;;;;;;;4.43;2.35;;;;;;;11.81;71.79;97514.56;5055559;28;20166;-60
2023/04/17 05:28:13;;;;;;;4.45;2.85;;;;;;;12.46;71.95;97595.13;5055499;28;20177;-61
2023/04/17 05:30:38;;;;;;;3.58;2.25;;;;;;;12.07;69.95;97515.69;5055204;28;20204;-61
2023/04/17 05:33:04;;;;;;;7.55;3.42;;;;;;;12.16;69.80;97514.88;5055156;28;20571;-61
2023/04/17 05:35:29;;;;;;;4.25;2.80;;;;;;;12.19;68.56;97509.41;5055512;28;20181;-59
2023/04/17 05:37:55;;;;;;;7.07;2.78;;;;;;;12.73;67.63;97571.91;5055480;28;20178;-59
2023/04/17 05:40:20;;;;;;;6.07;3.38;;;;;;;12.92;66.62;97575.31;5033243;28;20197;-59
2023/04/17 05:42:46;;;;;;;4.15;2.40;;;;;;;12.79;66.61;97558.38;5032951;28;20190;-59
2023/04/17 05:45:12;;;;;;;3.55;2.63;;;;;;;12.83;66.43;97568.34;5033194;28;20289;-59
2023/04/17 05:47:38;;;;;;;5.80;2.30;;;;;;;13.09;65.72;97608.38;5032999;28;20182;-59
2023/04/17 05:50:04;;;;;;;4.88;1.95;;;;;;;13.07;66.02;97617.25;5032862;28;20679;-59
2023/04/17 05:52:29;;;;;;;2.88;1.90;;;;;;;12.76;65.00;97577.66;5032740;28;20206;-59
2023/04/17 05:54:55;;;;;;;4.55;1.95;;;;;;;12.45;65.83;97541.63;5032841;28;20187;-59
2023/04/17 05:57:20;;;;;;;3.95;2.63;;;;;;;13.09;64.87;97612.75;5032619;28;20285;-59
2023/04/17 05:59:46;;;;;;;2.83;1.90;;;;;;;13.16;64.57;97611.22;5032780;28;20666;-59
2023/04/17 06:02:11;;;;;;;5.57;2.38;;;;;;;12.94;67.36;97575.97;5032651;28;20178;-59
2023/04/17 06:04:37;;;;;;;4.47;2.40;;;;;;;12.94;69.14;97559.56;5032891;28;20552;-59
2023/04/17 06:07:04;;;;;;;7.40;3.15;;;;;;;12.75;71.50;97526.69;5051626;28;20229;-60
2023/04/17 06:09:30;;;;;;;8.50;3.20;;;;;;;13.25;72.24;97606.00;5052241;28;20186;-59
2023/04/17 06:11:56;;;;;;;5.80;3.22;;;;;;;13.18;72.19;97572.94;5067095;28;20193;-60
2023/04/17 06:14:21;;;;;;;7.85;3.42;;;;;;;13.64;73.25;97620.50;5072723;28;20177;-59
2023/04/17 06:16:47;;;;;;;3.72;2.75;;;;;;;13.73;73.30;97616.22;5071742;28;20323;-59
2023/04/17 06:19:12;;;;;;;4.05;2.97;;;;;;;13.62;73.23;97587.81;5071957;28;20173;-60
2023/04/17 06:21:37;;;;;;;8.23;3.15;;;;;;;13.43;72.62;97562.75;5072188;28;20276;-60
2023/04/17 06:24:03;;;;;;;4.32;2.70;;;;;;;13.60;72.01;97581.94;5071910;28;20584;-60
2023/04/17 06:26:28;;;;;;;6.82;3.35;;;;;;;13.85;72.14;97617.66;5071838;28;20193;-60
2023/04/17 06:28:54;;;;;;;7.20;3.28;;;;;;;13.81;72.73;97613.72;5072067;28;20259;-60
2023/04/17 06:31:20;;;;;;;6.53;3.53;;;;;;;13.98;73.82;97650.19;5072073;28;20238;-59
2023/04/17 06:33:48;;;;;;;8.75;3.97;;;;;;;13.41;74.70;97575.03;5071966;28;20223;-59
2023/04/17 06:36:14;;;;;;;5.63;3.95;;;;;;;13.55;75.05;97604.94;5070385;28;20181;-59
2023/04/17 06:38:40;;;;;;;8.57;4.50;;;;;;;13.81;74.16;97631.91;5058289;28;20185;-59
2023/04/17 06:41:05;;;;;;;6.03;4.22;;;;;;;13.48;74.05;97570.09;5054308;28;20643;-59
2023/04/17 06:43:30;;;;;;;12.73;3.83;;;;;;;13.96;72.72;97633.91;5054207;28;20181;-60
2023/04/17 06:45:56;;;;;;;7.32;3.08;;;;;;;14.26;71.56;97662.25;5053411;28;20189;-59
2023/04/17 06:48:21;;;;;;;4.68;3.25;;;;;;;13.74;71.50;97578.88;5054165;28;20169;-60
2023/04/17 06:50:47;;;;;;;7.72;3.65;;;;;;;13.64;71.77;97571.13;5054108;28;20677;-60
2023/04/17 06:53:13;;;;;;;7.68;3.08;;;;;;;14.17;71.82;97657.09;5053761;28;20193;-59
2023/04/17 06:55:38;;;;;;;5.07;2.90;;;;;;;13.99;71.02;97627.59;5054053;28;20231;-59
2023/04/17 06:58:06;;;;;;;7.47;3.40;;;;;;;13.88;72.63;97630.41;5054028;28;20339;-59
2023/04/17 07:00:32;;;;;;;7.30;3.33;;;;;;;14.14;71.84;97646.94;5053919;28;20185;-60
2023/04/17 07:02:57;;;;;;;5.60;3.90;;;;;;;14.25;72.29;97623.38;5053893;28;20178;-59
2023/04/17 07:05:22;;;;;;;10.93;3.03;;;;;;;14.24;71.87;97591.31;5053842;28;20565;-60
2023/04/17 07:07:48;;;;;;;3.42;3.08;;;;;;;14.57;70.59;97608.09;5053875;28;20260;-59
2023/04/17 07:10:14;;;;;;;4.75;2.78;;;;;;;14.56;70.29;97607.25;5053724;28;20225;-59
2023/04/17 07:12:40;;;;;;;5.55;2.90;;;;;;;14.91;69.65;97642.88;5053670;28;20574;-59
2023/04/17 07:15:06;;;;;;;5.60;3.10;;;;;;;14.77;69.42;97593.94;5053676;28;20177;-60
2023/04/17 07:17:32;;;;;;;7.35;5.97;;;;;;;15.35;69.58;97657.56;5053652;28;20185;-60
2023/04/17 07:19:57;;;;;;;5.95;4.55;;;;;;;15.34;69.23;97646.31;5052647;28;20173;-59
2023/04/17 07:22:22;;;;;;;7.35;3.97;;;;;;;15.47;68.61;97633.72;5053560;28;20173;-60
2023/04/17 07:24:48;;;;;;;5.15;4.00;;;;;;;15.68;68.46;97652.41;5053460;28;20639;-60
2023/04/17 07:27:13;;;;;;;7.07;4.22;;;;;;;15.46;68.17;97619.03;5053448;28;20177;-60
2023/04/17 07:29:38;;;;;;;7.43;3.58;;;;;;;15.69;67.91;97638.38;5053358;28;20553;-60
2023/04/17 07:32:05;;;;;;;9.20;4.78;;;;;;;15.52;67.45;97609.78;5053211;28;20176;-61
2023/04/17 07:34:33;;;;;;;6.20;4.55;;;;;;;15.63;67.39;97633.78;5053223;28;20182;-60
2023/04/17 07:36:58;;;;;;;5.05;4.13;;;;;;;15.96;67.17;97684.31;5053103;28;20231;-60
2023/04/17 07:39:27;;;;;;;5.80;3.53;;;;;;;15.93;67.35;97685.47;5052821;28;20181;-60
2023/04/17 07:41:52;;;;;;;10.98;4.72;;;;;;;15.84;68.33;97690.78;5053352;28;20547;-60
2023/04/17 07:44:18;;;;;;;6.07;4.18;;;;;;;15.73;70.11;97680.63;5053117;28;20180;-60
2023/04/17 07:46:44;;;;;;;10.13;4.43;;;;;;;15.59;71.18;97635.09;5053078;28;20557;-61
2023/04/17 07:49:09;;;;;;;8.18;5.57;;;;;;;15.47;71.92;97619.84;5053033;28;20178;-60
2023/04/17 07:51:37;;;;;;;14.85;5.05;;;;;;;15.97;72.22;97675.56;5052651;28;20181;-60
2023/04/17 07:54:02;;;;;;;8.07;4.70;;;;;;;15.53;71.93;97608.81;5052801;28;20255;-60
2023/04/17 07:56:28;;;;;;;9.10;5.03;;;;;;;15.76;72.30;97656.84;5052856;28;20166;-60
2023/04/17 07:58:53;;;;;;;13.20;7.00;;;;;;;15.85;72.64;97675.00;5052548;28;20196;-62
2023/04/17 08:01:20;;;;;;;10.32;5.32;;;;;;;15.47;72.42;97607.66;5052277;28;20172;-61
2023/04/17 08:03:45;;;;;;;8.32;5.35;;;;;;;15.76;72.20;97647.25;5052805;28;20188;-61
2023/04/17 08:06:11;;;;;;;9.57;4.80;;;;;;;15.83;72.59;97678.72;5052499;28;20170;-59
2023/04/17 08:08:36;;;;;;;6.78;5.00;;;;;;;15.52;72.59;97620.22;5052509;28;20631;-59
2023/04/17 08:11:02;;;;;;;10.25;5.20;;;;;;;15.30;72.87;97607.66;5052433;28;20625;-59
2023/04/17 08:13:31;;;;;;;12.52;6.18;;;;;;;15.29;73.81;97606.03;5052260;28;20205;-60
2023/04/17 08:15:58;;;;;;;11.82;6.15;;;;;;;15.88;73.54;97677.31;5052309;28;20545;-60
2023/04/17 08:18:24;;;;;;;6.88;5.32;;;;;;;15.89;73.85;97670.28;5051625;28;20178;-60
2023/04/17 08:20:49;;;;;;;8.10;6.10;;;;;;;15.52;74.14;97607.97;5052200;28;20720;-60
2023/04/17 08:23:15;;;;;;;13.52;11.05;;;;;;;15.89;76.32;97663.28;5052225;28;20264;-60
2023/04/17 08:25:40;;;;;;;17.00;12.85;;;;;;;15.71;85.12;97659.94;5052266;28;20177;-60
2023/04/17 08:28:05;;;;;;;15.98;10.98;;;;;;;15.80;85.80;97671.22;5052666;28;20178;-60
2023/04/17 08:30:31;;;;;;;23.27;13.15;;;;;;;15.52;88.25;97644.47;5051913;28;20236;-60
2023/04/17 08:32:56;;;;;;;15.85;11.73;;;;;;;15.44;91.20;97626.19;5051933;28;20585;-59
2023/04/17 08:35:22;;;;;;;13.93;12.50;;;;;;;15.11;92.96;97579.19;5052275;28;20180;-60
2023/04/17 08:37:47;;;;;;;22.23;18.30;;;;;;;15.36;92.36;97607.91;5052105;28;20260;-60
2023/04/17 08:40:14;;;;;;;17.08;11.63;;;;;;;15.84;89.42;97664.69;5052164;28;20261;-60
2023/04/17 08:42:41;;;;;;;15.90;11.98;;;;;;;15.43;88.98;97576.81;5052129;28;20177;-60
2023/04/17 08:45:12;;;;;;;16.10;10.80;;;;;;;15.57;88.53;97603.13;5051998;28;20201;-60
2023/04/17 08:47:38;;;;;;;16.55;10.60;;;;;;;15.93;88.31;97666.38;5051811;28;20178;-60
2023/04/17 08:50:08;;;;;;;15.50;10.30;;;;;;;15.53;88.02;97588.78;5051634;28;20178;-60
2023/04/17 08:52:38;;;;;;;11.60;10.43;;;;;;;15.37;92.91;97648.63;5052062;28;20197;-60
2023/04/17 08:55:05;;;;;;;16.65;12.15;;;;;;;15.18;95.39;97645.38;5052104;28;20552;-60
2023/04/17 08:57:30;;;;;;;21.20;15.40;;;;;;;14.72;98.91;97590.94;5051899;28;20228;-59
2023/04/17 08:59:55;;;;;;;17.70;14.50;;;;;;;14.68;100.00;97590.44;5051992;28;20212;-60
2023/04/17 09:02:21;;;;;;;18.85;15.05;;;;;;;14.90;100.00;97662.91;5052016;28;20188;-60
2023/04/17 09:04:47;;;;;;;34.28;19.80;;;;;;;14.58;100.00;97617.53;5051309;28;20540;-60
2023/04/17 09:07:14;;;;;;;20.05;14.40;;;;;;;14.85;100.00;97627.84;5051953;28;20178;-60
2023/04/17 09:09:53;;;;;;;13.68;12.35;;;;;;;15.24;100.00;97671.66;5051944;28;20224;-60
2023/04/17 09:12:20;;;;;;;13.77;11.95;;;;;;;15.01;100.00;97609.75;5051592;28;20193;-59
2023/04/17 09:14:46;;;;;;;15.93;12.70;;;;;;;15.38;100.00;97642.44;5050891;28;20215;-60
2023/04/17 09:17:17;;;;;;;16.33;12.75;;;;;;;15.46;100.00;97639.09;5051650;28;20264;-60
2023/04/17 09:20:06;;;;;;;17.48;13.35;;;;;;;15.13;100.00;97588.50;5051948;28;20182;-59
2023/04/17 09:22:32;;;;;;;14.27;12.35;;;;;;;15.28;100.00;97604.41;5050893;28;20550;-60
2023/04/17 09:24:58;;;;;;;15.35;13.75;;;;;;;15.51;100.00;97636.84;5051556;28;20174;-60
2023/04/17 09:27:25;;;;;;;14.23;12.65;;;;;;;15.47;100.00;97606.81;5051667;28;20174;-61
2023/04/17 09:30:04;;;;;;;15.68;13.05;;;;;;;15.89;100.00;97678.94;5051566;28;20629;-60
2023/04/17 09:32:32;;;;;;;13.98;12.57;;;;;;;15.96;100.00;97684.31;5051572;28;20201;-60
2023/04/17 09:35:00;;;;;;;15.70;13.07;;;;;;;15.81;100.00;97672.84;5051657;28;20190;-60
2023/04/17 09:37:47;;;;;;;13.85;11.82;;;;;;;15.68;100.00;97677.69;5051205;28;20227;-60
2023/04/17 09:40:13;;;;;;;15.90;11.88;;;;;;;15.16;100.00;97598.59;5051900;28;20196;-60
2023/04/17 09:42:55;;;;;;;12.45;11.25;;;;;;;15.64;100.00;97668.53;5050262;28;20636;-60
2023/04/17 09:45:21;;;;;;;13.63;12.18;;;;;;;15.42;100.00;97624.72;5055431;28;20239;-60
2023/04/17 09:47:47;;;;;;;15.30;13.38;;;;;;;15.72;100.00;97647.69;5055352;28;20184;-60
2023/04/17 09:50:17;;;;;;;14.02;12.13;;;;;;;15.60;100.00;97635.88;5055164;28;20566;-60
2023/04/17 09:52:43;;;;;;;11.65;10.52;;;;;;;15.61;100.00;97633.13;5054132;28;20208;-60
2023/04/17 09:55:10;;;;;;;12.10;10.88;;;;;;;15.61;100.00;97616.66;5055188;28;20178;-60
2023/04/17 09:57:40;;;;;;;11.75;10.02;;;;;;;15.67;100.00;97606.44;5054882;28;20642;-60
2023/04/17 10:00:10;;;;;;;10.75;9.55;;;;;;;16.14;100.00;97670.22;5054902;28;20174;-60
2023/04/17 10:02:38;;;;;;;11.18;8.82;;;;;;;16.21;100.00;97673.84;5054770;28;20216;-60
2023/04/17 10:05:07;;;;;;;10.73;9.82;;;;;;;15.96;100.00;97632.97;5054680;28;20197;-62
2023/04/17 10:07:35;;;;;;;10.68;9.57;;;;;;;16.15;100.00;97660.63;5054863;28;20578;-61
2023/04/17 10:10:03;;;;;;;10.15;9.15;;;;;;;16.21;100.00;97673.03;5054848;28;20181;-60
2023/04/17 10:12:28;;;;;;;11.52;9.85;;;;;;;16.09;100.00;97650.81;5054611;28;20628;-60
2023/04/17 10:14:54;;;;;;;13.20;11.57;;;;;;;16.15;100.00;97668.44;5054843;28;20174;-60
2023/04/17 10:17:33;;;;;;;12.30;10.75;;;;;;;15.87;100.00;97669.63;5054730;28;20231;-60
2023/04/17 10:20:32;;;;;;;12.63;10.05;;;;;;;15.73;100.00;97670.19;5054821;28;20166;-60
2023/04/17 10:22:57;;;;;;;11.32;10.13;;;;;;;15.21;100.00;97587.75;5052081;28;20193;-60
2023/04/17 10:25:24;;;;;;;12.55;10.30;;;;;;;15.44;100.00;97643.59;5052339;28;20184;-60
2023/04/17 10:28:00;;;;;;;16.58;11.80;;;;;;;15.18;100.00;97619.31;5050397;28;20737;-60
2023/04/17 10:30:52;;;;;;;13.60;11.98;;;;;;;15.37;100.00;97664.28;5051953;28;20182;-61
2023/04/17 10:33:20;;;;;;;12.30;11.00;;;;;;;14.98;100.00;97612.66;5051820;28;20396;-62
2023/04/17 10:35:47;;;;;;;14.82;11.73;;;;;;;15.10;100.00;97646.13;5051202;28;20182;-62
2023/04/17 10:38:14;;;;;;;14.32;11.23;;;;;;;14.96;100.00;97614.59;5051714;28;20178;-59
2023/04/17 10:40:42;;;;;;;13.68;12.25;;;;;;;15.06;100.00;97644.81;5051664;28;20570;-59
2023/04/17 10:43:16;;;;;;;13.35;12.02;;;;;;;14.74;100.00;97579.41;5051519;28;20206;-64
2023/04/17 10:45:56;;;;;;;13.98;12.52;;;;;;;15.20;100.00;97661.66;5051736;28;20186;-60
2023/04/17 10:48:31;;;;;;;17.75;13.73;;;;;;;15.20;100.00;97664.25;5051673;28;20181;-60
2023/04/17 10:50:58;;;;;;;13.60;11.88;;;;;;;14.78;100.00;97585.13;5051475;28;20307;-60
2023/04/17 10:53:42;;;;;;;13.85;12.00;;;;;;;15.34;100.00;97650.72;5051533;28;20557;-59
2023/04/17 10:56:10;;;;;;;13.60;12.20;;;;;;;15.24;100.00;97629.13;5051546;28;20177;-59
2023/04/17 10:59:03;;;;;;;14.20;12.75;;;;;;;14.94;100.00;97565.22;5042009;28;20251;-59
2023/04/17 11:01:30;;;;;;;15.82;13.55;;;;;;;15.28;100.00;97648.72;5033953;28;20174;-59
2023/04/17 11:04:00;;;;;;;19.67;15.88;;;;;;;14.70;100.00;97561.66;5032993;28;20186;-59
2023/04/17 11:06:27;;;;;;;18.35;15.68;;;;;;;14.65;100.00;97558.69;5031270;28;20201;-59
2023/04/17 11:08:55;;;;;;;18.92;15.05;;;;;;;14.67;100.00;97552.34;5031222;28;20190;-59
2023/04/17 11:11:21;;;;;;;19.13;14.82;;;;;;;15.21;100.00;97619.81;5031543;28;20198;-59
2023/04/17 11:13:47;;;;;;;17.95;13.90;;;;;;;14.99;100.00;97575.22;5050790;28;20649;-59
2023/04/17 11:16:16;;;;;;;22.90;16.60;;;;;;;14.98;100.00;97558.75;5051181;28;20281;-59
2023/04/17 11:18:42;;;;;;;38.65;22.27;;;;;;;15.57;100.00;97615.34;5051246;28;20181;-59
2023/04/17 11:21:12;;;;;;;15.65;13.90;;;;;;;15.77;100.00;97606.31;5051071;28;20189;-59
2023/04/17 11:23:38;;;;;;;15.52;13.02;;;;;;;15.71;100.00;97560.00;5050687;28;20280;-60
2023/04/17 11:26:04;;;;;;;10.02;8.70;;;;;;;15.79;100.00;97533.94;5050512;28;20355;-60